createdAt,value
2022-12-07T00:01:40.047Z,4.00
2022-12-07T00:04:09.093Z,3.90
2022-12-07T00:06:44.622Z,3.80
2022-12-07T00:09:14.370Z,3.70
2022-12-07T00:11:41.333Z,3.60
2022-12-07T00:14:12.549Z,3.50
2022-12-07T00:16:39.500Z,3.50
2022-12-07T00:19:06.445Z,3.40
2022-12-07T00:21:35.978Z,3.30
2022-12-07T00:24:04.503Z,3.30
2022-12-07T00:26:36.719Z,3.20
2022-12-07T00:29:08.547Z,3.20
2022-12-07T00:31:40.127Z,3.20
2022-12-07T00:34:19.341Z,3.20
2022-12-07T00:36:46.424Z,3.30
2022-12-07T00:39:13.238Z,3.30
2022-12-07T00:41:39.998Z,3.30
2022-12-07T00:44:07.039Z,3.30
2022-12-07T00:46:33.925Z,3.30
2022-12-07T00:49:00.749Z,3.20
2022-12-07T00:51:27.962Z,3.10
2022-12-07T00:53:54.975Z,3.00
2022-12-07T00:56:27.685Z,3.00
2022-12-07T00:59:05.206Z,2.90
2022-12-07T01:01:37.671Z,2.80
2022-12-07T01:04:05.019Z,2.80
2022-12-07T01:06:32.439Z,2.80
2022-12-07T01:09:00.225Z,2.70
2022-12-07T01:11:30.383Z,2.70
2022-12-07T01:13:58.687Z,2.70
2022-12-07T01:16:27.576Z,2.70
2022-12-07T01:18:58.415Z,2.80
2022-12-07T01:21:27.840Z,2.80
2022-12-07T01:23:54.917Z,2.80
2022-12-07T01:26:23.709Z,2.80
2022-12-07T01:28:50.971Z,2.70
2022-12-07T01:31:20.816Z,2.70
2022-12-07T01:33:53.935Z,2.60
2022-12-07T01:36:26.665Z,2.50
2022-12-07T01:38:57.693Z,2.50
2022-12-07T01:41:27.014Z,2.40
2022-12-07T01:44:18.759Z,2.40
2022-12-07T01:46:53.127Z,2.30
2022-12-07T01:49:43.741Z,2.30
2022-12-07T01:52:18.320Z,2.20
2022-12-07T01:54:50.668Z,2.20
2022-12-07T01:57:18.907Z,2.10
2022-12-07T01:59:48.249Z,2.10
2022-12-07T02:02:32.951Z,2.00
2022-12-07T02:05:02.068Z,2.00
2022-12-07T02:07:29.969Z,2.00
2022-12-07T02:09:56.743Z,2.00
2022-12-07T02:12:25.444Z,2.00
2022-12-07T02:14:53.573Z,2.20
2022-12-07T02:17:33.156Z,2.30
2022-12-07T02:20:35.354Z,2.50
2022-12-07T02:23:39.208Z,2.60
2022-12-07T02:26:36.321Z,2.70
2022-12-07T02:29:21.107Z,2.70
2022-12-07T02:31:56.806Z,2.60
2022-12-07T02:34:37.671Z,2.60
2022-12-07T02:37:22.495Z,2.60
2022-12-07T02:40:32.837Z,2.50
2022-12-07T02:43:22.978Z,2.50
2022-12-07T02:45:52.987Z,2.60
2022-12-07T02:48:21.034Z,2.70
2022-12-07T02:50:52.880Z,2.70
2022-12-07T02:53:52.249Z,2.80
2022-12-07T02:56:47.966Z,2.90
2022-12-07T02:59:38.503Z,2.90
2022-12-07T03:02:29.302Z,2.90
2022-12-07T03:05:16.153Z,3.00
2022-12-07T03:08:04.250Z,3.00
2022-12-07T03:10:36.558Z,3.00
2022-12-07T03:13:06.556Z,3.10
2022-12-07T03:16:09.617Z,3.00
2022-12-07T03:18:51.558Z,3.00
2022-12-07T03:21:41.325Z,3.00
2022-12-07T03:24:14.455Z,3.00
2022-12-07T03:26:48.602Z,2.90
2022-12-07T03:29:25.243Z,2.90
2022-12-07T03:32:18.576Z,2.80
2022-12-07T03:34:51.162Z,2.80
2022-12-07T03:37:35.219Z,2.70
2022-12-07T03:40:07.322Z,2.60
2022-12-07T03:42:34.665Z,2.50
2022-12-07T03:45:05.652Z,2.40
2022-12-07T03:47:38.888Z,2.40
2022-12-07T03:50:18.454Z,2.50
2022-12-07T03:52:54.864Z,2.70
2022-12-07T03:55:32.184Z,2.70
2022-12-07T03:58:04.839Z,2.70
2022-12-07T04:00:32.237Z,2.70
2022-12-07T04:02:59.724Z,2.80
2022-12-07T04:05:26.952Z,2.80
2022-12-07T04:07:53.956Z,2.80
2022-12-07T04:10:21.139Z,2.90
2022-12-07T04:12:47.927Z,3.00
2022-12-07T04:15:14.695Z,3.00
2022-12-07T04:17:41.490Z,3.10
2022-12-07T04:20:09.458Z,3.10
2022-12-07T04:22:36.610Z,3.20
2022-12-07T04:25:03.598Z,3.20
2022-12-07T04:27:30.322Z,3.10
2022-12-07T04:29:57.183Z,3.00
2022-12-07T04:32:25.012Z,2.90
2022-12-07T04:34:55.642Z,2.80
2022-12-07T04:37:23.440Z,2.80
2022-12-07T04:39:50.182Z,2.80
2022-12-07T04:42:17.017Z,2.90
2022-12-07T04:44:43.782Z,3.00
2022-12-07T04:47:10.560Z,3.00
2022-12-07T04:49:37.379Z,3.10
2022-12-07T04:52:04.252Z,3.10
2022-12-07T04:54:31.003Z,3.10
2022-12-07T04:56:57.810Z,3.20
2022-12-07T04:59:24.660Z,3.20
2022-12-07T05:01:51.501Z,3.20
2022-12-07T05:04:19.043Z,3.10
2022-12-07T05:06:45.893Z,3.00
2022-12-07T05:09:12.814Z,2.90
2022-12-07T05:11:39.732Z,2.90
2022-12-07T05:14:18.959Z,2.80
2022-12-07T05:16:48.720Z,2.70
2022-12-07T05:19:16.252Z,2.60
2022-12-07T05:21:43.044Z,2.60
2022-12-07T05:24:12.008Z,2.50
2022-12-07T05:26:38.779Z,2.50
2022-12-07T05:29:06.367Z,2.40
2022-12-07T05:31:33.747Z,2.40
2022-12-07T05:34:01.498Z,2.40
2022-12-07T05:36:29.720Z,2.30
2022-12-07T05:38:56.676Z,2.30
2022-12-07T05:41:42.218Z,2.30
2022-12-07T05:44:09.208Z,2.20
2022-12-07T05:46:36.190Z,2.20
2022-12-07T05:49:03.868Z,2.20
2022-12-07T05:51:30.797Z,2.20
2022-12-07T05:53:57.651Z,2.30
2022-12-07T05:56:24.472Z,2.30
2022-12-07T05:59:10.288Z,2.30
2022-12-07T06:01:37.119Z,2.30
2022-12-07T06:04:03.919Z,2.40
2022-12-07T06:06:30.814Z,2.40
2022-12-07T06:08:57.681Z,2.50
2022-12-07T06:11:42.973Z,2.50
2022-12-07T06:14:09.970Z,2.60
2022-12-07T06:16:36.772Z,2.60
2022-12-07T06:19:03.864Z,2.60
2022-12-07T06:21:30.955Z,2.70
2022-12-07T06:24:00.482Z,2.80
2022-12-07T06:26:27.288Z,2.80
2022-12-07T06:28:54.110Z,2.70
2022-12-07T06:31:21.097Z,2.60
2022-12-07T06:33:47.950Z,2.50
2022-12-07T06:36:14.818Z,2.60
2022-12-07T06:38:41.794Z,2.60
2022-12-07T06:41:08.628Z,2.60
2022-12-07T06:43:35.592Z,2.60
2022-12-07T06:46:02.435Z,2.60
2022-12-07T06:48:29.186Z,2.70
2022-12-07T06:50:56.074Z,2.80
2022-12-07T06:53:23.547Z,2.70
2022-12-07T06:55:50.496Z,2.70
2022-12-07T06:58:19.013Z,2.60
2022-12-07T07:00:46.546Z,2.60
2022-12-07T07:03:13.336Z,2.50
2022-12-07T07:05:40.426Z,2.50
2022-12-07T07:08:23.225Z,2.50
2022-12-07T07:10:50.757Z,2.50
2022-12-07T07:13:17.713Z,2.50
2022-12-07T07:15:44.715Z,2.50
2022-12-07T07:18:15.548Z,2.50
2022-12-07T07:20:42.672Z,2.50
2022-12-07T07:23:09.507Z,2.50
2022-12-07T07:25:36.363Z,2.50
2022-12-07T07:28:03.831Z,2.50
2022-12-07T07:30:30.790Z,2.30
2022-12-07T07:33:02.196Z,2.30
2022-12-07T07:35:31.781Z,2.20
2022-12-07T07:37:58.755Z,2.10
2022-12-07T07:40:26.091Z,2.10
2022-12-07T07:42:54.085Z,2.20
2022-12-07T07:45:22.388Z,2.20
2022-12-07T07:47:49.653Z,2.20
2022-12-07T07:50:17.178Z,2.10
2022-12-07T07:52:44.040Z,2.10
2022-12-07T07:55:11.432Z,2.00
2022-12-07T07:57:39.949Z,2.00
2022-12-07T08:00:09.789Z,2.00
2022-12-07T08:02:36.594Z,2.10
2022-12-07T08:05:04.890Z,2.10
2022-12-07T08:07:31.930Z,2.20
2022-12-07T08:09:58.774Z,2.20
2022-12-07T08:12:25.612Z,2.20
2022-12-07T08:14:52.600Z,2.30
2022-12-07T08:17:19.407Z,2.50
2022-12-07T08:19:46.197Z,2.70
2022-12-07T08:22:13.963Z,3.00
2022-12-07T08:24:45.724Z,3.30
2022-12-07T08:27:12.459Z,3.40
2022-12-07T08:29:40.331Z,3.50
2022-12-07T08:32:09.726Z,3.50
2022-12-07T08:34:38.064Z,3.50
2022-12-07T08:37:04.946Z,3.40
2022-12-07T08:39:32.770Z,3.40
2022-12-07T08:41:59.987Z,3.50
2022-12-07T08:44:26.914Z,3.60
2022-12-07T08:47:02.347Z,3.80
2022-12-07T08:49:40.424Z,3.90
2022-12-07T08:52:07.340Z,4.10
2022-12-07T08:54:37.329Z,4.10
2022-12-07T08:57:04.936Z,4.20
2022-12-07T08:59:32.110Z,4.30
2022-12-07T09:01:58.938Z,4.30
2022-12-07T09:04:25.804Z,4.50
2022-12-07T09:06:52.696Z,4.60
2022-12-07T09:09:19.596Z,4.70
2022-12-07T09:11:46.424Z,4.70
2022-12-07T09:14:14.099Z,4.70
2022-12-07T09:16:41.439Z,4.70
2022-12-07T09:19:09.369Z,4.80
2022-12-07T09:21:37.836Z,4.90
2022-12-07T09:24:04.889Z,5.00
2022-12-07T09:26:31.659Z,5.00
2022-12-07T09:28:58.485Z,5.10
2022-12-07T09:31:26.251Z,5.10
2022-12-07T09:34:01.632Z,5.10
2022-12-07T09:36:29.389Z,5.20
2022-12-07T09:38:56.591Z,5.30
2022-12-07T09:41:25.807Z,5.50
2022-12-07T09:43:53.876Z,5.60
2022-12-07T09:46:21.998Z,5.80
2022-12-07T09:48:51.019Z,6.30
2022-12-07T09:51:23.993Z,6.40
2022-12-07T09:53:56.178Z,6.30
2022-12-07T09:56:24.828Z,6.20
2022-12-07T09:59:02.000Z,6.20
2022-12-07T10:01:31.947Z,6.10
2022-12-07T10:04:22.024Z,6.10
2022-12-07T10:06:52.033Z,6.10
2022-12-07T10:09:21.989Z,6.10
2022-12-07T10:12:05.622Z,6.20
2022-12-07T10:15:05.652Z,6.30
2022-12-07T10:17:37.739Z,6.40
2022-12-07T10:20:30.686Z,6.40
2022-12-07T10:23:02.376Z,6.40
2022-12-07T10:25:39.863Z,6.30
2022-12-07T10:28:09.784Z,6.10
2022-12-07T10:31:06.127Z,6.00
2022-12-07T10:33:50.021Z,6.50
2022-12-07T10:36:38.778Z,6.90
2022-12-07T10:39:17.259Z,7.20
2022-12-07T10:42:01.045Z,8.10
2022-12-07T10:44:33.428Z,8.40
2022-12-07T10:47:22.011Z,8.20
2022-12-07T10:50:09.984Z,7.90
2022-12-07T10:52:58.593Z,7.50
2022-12-07T10:55:42.082Z,7.40
2022-12-07T10:58:28.823Z,7.70
2022-12-07T11:01:24.702Z,8.20
2022-12-07T11:04:27.167Z,8.30
2022-12-07T11:07:07.994Z,8.20
2022-12-07T11:10:12.383Z,7.90
2022-12-07T11:13:15.370Z,7.70
2022-12-07T11:16:22.811Z,7.50
2022-12-07T11:19:16.328Z,7.40
2022-12-07T11:22:03.338Z,7.30
2022-12-07T11:24:49.496Z,7.10
2022-12-07T11:27:37.179Z,7.00
2022-12-07T11:30:14.409Z,6.90
2022-12-07T11:32:55.885Z,7.30
2022-12-07T11:35:36.661Z,8.40
2022-12-07T11:38:16.813Z,9.10
2022-12-07T11:40:49.897Z,9.10
2022-12-07T11:43:36.348Z,8.70
2022-12-07T11:46:13.279Z,8.80
2022-12-07T11:48:47.074Z,9.30
2022-12-07T11:51:15.931Z,9.00
2022-12-07T11:54:19.300Z,8.40
2022-12-07T11:56:49.173Z,8.00
2022-12-07T11:59:30.408Z,7.60
2022-12-07T12:02:00.199Z,7.40
2022-12-07T12:04:40.333Z,7.30
2022-12-07T12:10:06.536Z,7.10
2022-12-07T12:15:47.853Z,7.00
2022-12-07T12:18:26.985Z,6.90
2022-12-07T12:21:03.167Z,6.80
2022-12-07T12:23:45.556Z,6.80
2022-12-07T12:26:37.543Z,6.80
2022-12-07T12:29:21.408Z,6.90
2022-12-07T12:32:12.606Z,7.00
2022-12-07T12:35:01.311Z,7.20
2022-12-07T12:37:34.369Z,7.40
2022-12-07T12:40:33.375Z,7.70
2022-12-07T12:43:01.694Z,8.00
2022-12-07T12:45:33.986Z,8.30
2022-12-07T12:48:02.597Z,8.40
2022-12-07T12:50:36.437Z,8.30
2022-12-07T12:53:27.954Z,8.10
2022-12-07T12:56:06.754Z,7.90
2022-12-07T12:58:39.258Z,7.50
2022-12-07T13:01:28.103Z,7.20
2022-12-07T13:03:56.881Z,6.80
2022-12-07T13:06:27.822Z,6.70
2022-12-07T13:08:58.594Z,6.50
2022-12-07T13:11:39.434Z,6.40
2022-12-07T13:14:41.276Z,6.30
2022-12-07T13:17:28.318Z,6.20
2022-12-07T13:19:55.976Z,6.20
2022-12-07T13:22:31.785Z,6.10
2022-12-07T13:25:08.987Z,6.10
2022-12-07T13:27:39.845Z,6.10
2022-12-07T13:30:23.815Z,6.00
2022-12-07T13:32:55.219Z,5.90
2022-12-07T13:35:38.696Z,5.90
2022-12-07T13:38:22.793Z,6.00
2022-12-07T13:41:06.013Z,6.00
2022-12-07T13:43:32.828Z,6.00
2022-12-07T13:46:01.878Z,6.00
2022-12-07T13:48:34.753Z,6.10
2022-12-07T13:51:03.841Z,6.20
2022-12-07T13:53:33.798Z,6.20
2022-12-07T13:56:02.283Z,6.30
2022-12-07T13:58:32.333Z,6.30
2022-12-07T14:00:59.541Z,6.30
2022-12-07T14:03:35.379Z,6.30
2022-12-07T14:06:18.475Z,6.40
2022-12-07T14:08:45.899Z,6.40
2022-12-07T14:11:20.861Z,6.40
2022-12-07T14:13:59.696Z,6.40
2022-12-07T14:16:38.474Z,6.40
2022-12-07T14:19:28.768Z,6.40
2022-12-07T14:22:29.922Z,6.40
2022-12-07T14:25:21.033Z,6.40
2022-12-07T14:27:50.615Z,6.40
2022-12-07T14:30:19.300Z,6.40
2022-12-07T14:32:49.576Z,6.30
2022-12-07T14:35:18.794Z,6.20
2022-12-07T14:37:48.497Z,6.10
2022-12-07T14:40:35.995Z,6.10
2022-12-07T14:43:06.229Z,6.00
2022-12-07T14:45:33.476Z,6.00
2022-12-07T14:53:43.770Z,5.80
2022-12-07T14:56:10.662Z,5.70
2022-12-07T14:58:37.501Z,5.70
2022-12-07T15:01:04.372Z,5.70
2022-12-07T15:03:31.350Z,5.60
2022-12-07T15:05:58.858Z,5.60
2022-12-07T15:08:25.738Z,5.60
2022-12-07T15:10:54.740Z,5.60
2022-12-07T15:13:39.846Z,5.60
2022-12-07T15:16:09.415Z,5.60
2022-12-07T15:18:36.308Z,5.50
2022-12-07T15:21:03.152Z,5.50
2022-12-07T15:23:30.231Z,5.40
2022-12-07T15:25:57.002Z,5.40
2022-12-07T15:28:24.110Z,5.30
2022-12-07T15:30:51.174Z,5.30
2022-12-07T15:33:18.106Z,5.20
2022-12-07T15:35:46.349Z,5.20
2022-12-07T15:38:13.235Z,5.10
2022-12-07T15:40:40.046Z,5.10
2022-12-07T15:43:29.224Z,5.10
2022-12-07T15:45:56.120Z,5.00
2022-12-07T15:48:30.257Z,5.00
2022-12-07T15:51:10.003Z,5.00
2022-12-07T15:53:36.996Z,4.90
2022-12-07T15:56:08.209Z,4.90
2022-12-07T15:58:35.655Z,4.90
2022-12-07T16:01:14.642Z,4.90
2022-12-07T16:03:41.846Z,4.90
2022-12-07T16:06:08.966Z,4.90
2022-12-07T16:08:36.832Z,4.90
2022-12-07T16:11:07.536Z,4.80
2022-12-07T16:13:35.125Z,4.80
2022-12-07T16:16:08.530Z,4.80
2022-12-07T16:18:36.677Z,4.70
2022-12-07T16:21:03.959Z,4.70
2022-12-07T16:23:30.808Z,4.70
2022-12-07T16:26:09.217Z,4.70
2022-12-07T16:28:36.509Z,4.70
2022-12-07T16:31:05.803Z,4.70
2022-12-07T16:33:36.297Z,4.70
2022-12-07T16:36:04.733Z,4.60
2022-12-07T16:38:31.537Z,4.60
2022-12-07T16:40:58.552Z,4.60
2022-12-07T16:43:25.483Z,4.60
2022-12-07T16:45:52.635Z,4.50
2022-12-07T16:48:19.793Z,4.50
2022-12-07T16:50:51.266Z,4.50
2022-12-07T16:53:18.416Z,4.50
2022-12-07T16:55:48.960Z,4.40
2022-12-07T16:58:19.074Z,4.40
2022-12-07T17:00:46.654Z,4.40
2022-12-07T17:03:19.082Z,4.40
2022-12-07T17:05:48.307Z,4.40
2022-12-07T17:08:15.314Z,4.30
2022-12-07T17:10:44.931Z,4.40
2022-12-07T17:13:31.233Z,4.30
2022-12-07T17:16:04.055Z,4.30
2022-12-07T17:18:33.369Z,4.30
2022-12-07T17:21:09.839Z,4.30
2022-12-07T17:23:37.559Z,4.30
2022-12-07T17:26:16.509Z,4.40
2022-12-07T17:28:44.078Z,4.40
2022-12-07T17:31:12.923Z,4.40
2022-12-07T17:33:39.800Z,4.40
2022-12-07T17:36:21.334Z,4.50
2022-12-07T17:38:51.146Z,4.60
2022-12-07T17:41:45.854Z,4.60
2022-12-07T17:44:15.932Z,4.60
2022-12-07T17:46:43.289Z,4.60
2022-12-07T17:49:10.342Z,4.60
2022-12-07T17:52:19.709Z,4.60
2022-12-07T17:54:46.606Z,4.60
2022-12-07T17:57:13.444Z,4.50
2022-12-07T17:59:42.069Z,4.50
2022-12-07T18:02:10.896Z,4.40
2022-12-07T18:04:37.782Z,4.40
2022-12-07T18:07:07.166Z,4.40
2022-12-07T18:09:34.481Z,4.40
2022-12-07T18:12:03.208Z,4.30
2022-12-07T18:14:30.031Z,4.30
2022-12-07T18:16:57.398Z,4.30
2022-12-07T18:19:27.563Z,4.30
2022-12-07T18:21:56.952Z,4.30
2022-12-07T18:24:26.126Z,4.30
2022-12-07T18:26:55.187Z,4.20
2022-12-07T18:29:22.087Z,4.20
2022-12-07T18:31:53.221Z,4.20
2022-12-07T18:34:20.608Z,4.20
2022-12-07T18:36:51.538Z,4.10
2022-12-07T18:39:19.812Z,4.10
2022-12-07T18:41:47.734Z,4.10
2022-12-07T18:44:18.101Z,4.10
2022-12-07T18:46:46.447Z,4.10
2022-12-07T18:49:15.807Z,4.10
2022-12-07T18:51:43.128Z,4.10
2022-12-07T18:54:10.016Z,4.10
2022-12-07T18:56:38.811Z,4.10
2022-12-07T18:59:28.086Z,4.10
2022-12-07T19:01:59.120Z,4.00
2022-12-07T19:04:26.504Z,4.00
2022-12-07T19:06:53.548Z,4.00
2022-12-07T19:09:20.495Z,4.00
2022-12-07T19:11:52.236Z,4.00
2022-12-07T19:14:23.110Z,4.00
2022-12-07T19:16:51.648Z,4.00
2022-12-07T19:19:20.754Z,4.00
2022-12-07T19:21:48.960Z,4.00
2022-12-07T19:24:23.453Z,4.10
2022-12-07T19:26:55.999Z,4.00
2022-12-07T19:29:23.677Z,4.00
2022-12-07T19:31:51.782Z,4.00
2022-12-07T19:34:22.810Z,4.00
2022-12-07T19:36:52.245Z,4.00
2022-12-07T19:39:19.303Z,3.90
2022-12-07T19:41:47.479Z,3.90
2022-12-07T19:44:17.012Z,3.90
2022-12-07T19:46:46.755Z,3.80
2022-12-07T19:49:16.171Z,3.80
2022-12-07T19:51:45.279Z,3.80
2022-12-07T19:54:15.881Z,3.80
2022-12-07T19:56:46.879Z,3.80
2022-12-07T19:59:16.590Z,3.80
2022-12-07T20:01:45.319Z,3.90
2022-12-07T20:04:18.206Z,3.90
2022-12-07T20:06:48.414Z,4.00
2022-12-07T20:09:15.767Z,4.00
2022-12-07T20:12:01.755Z,4.00
2022-12-07T20:14:30.553Z,4.00
2022-12-07T20:16:58.055Z,4.00
2022-12-07T20:19:24.878Z,4.00
2022-12-07T20:21:52.376Z,4.00
2022-12-07T20:24:22.846Z,4.00
2022-12-07T20:26:50.852Z,3.90
2022-12-07T20:29:20.501Z,3.90
2022-12-07T20:31:49.941Z,3.90
2022-12-07T20:34:17.987Z,3.90
2022-12-07T20:36:48.105Z,3.90
2022-12-07T20:39:17.832Z,3.80
2022-12-07T20:42:02.967Z,3.80
2022-12-07T20:44:29.745Z,3.80
2022-12-07T20:46:56.534Z,3.70
2022-12-07T20:49:23.332Z,3.70
2022-12-07T20:51:51.601Z,3.70
2022-12-07T20:54:19.838Z,3.70
2022-12-07T20:56:46.684Z,3.70
2022-12-07T20:59:16.067Z,3.70
2022-12-07T21:01:45.659Z,3.70
2022-12-07T21:04:14.686Z,3.70
2022-12-07T21:06:41.506Z,3.70
2022-12-07T21:09:10.120Z,3.70
2022-12-07T21:11:37.765Z,3.70
2022-12-07T21:14:04.638Z,3.80
2022-12-07T21:16:32.571Z,3.70
2022-12-07T21:19:02.767Z,3.70
2022-12-07T21:21:31.448Z,3.60
2022-12-07T21:24:02.465Z,3.50
2022-12-07T21:26:30.812Z,3.50
2022-12-07T21:28:57.732Z,3.50
2022-12-07T21:31:25.067Z,3.40
2022-12-07T21:33:52.013Z,3.40
2022-12-07T21:36:21.905Z,3.40
2022-12-07T21:38:50.078Z,3.40
2022-12-07T21:41:35.604Z,3.40
2022-12-07T21:44:06.541Z,3.40
2022-12-07T21:46:34.750Z,3.40
2022-12-07T21:49:05.451Z,3.40
2022-12-07T21:51:32.736Z,3.40
2022-12-07T21:54:00.846Z,3.40
2022-12-07T21:56:30.845Z,3.40
2022-12-07T21:59:06.879Z,3.50
2022-12-07T22:01:38.287Z,3.50
2022-12-07T22:04:06.223Z,3.50
2022-12-07T22:06:34.577Z,3.50
2022-12-07T22:09:01.519Z,3.50
2022-12-07T22:11:28.307Z,3.50
2022-12-07T22:14:13.555Z,3.50
2022-12-07T22:16:40.433Z,3.50
2022-12-07T22:19:08.473Z,3.50
2022-12-07T22:21:35.870Z,3.50
2022-12-07T22:24:04.414Z,3.50
2022-12-07T22:26:31.615Z,3.50
2022-12-07T22:28:58.373Z,3.50
2022-12-07T22:31:25.879Z,3.50
2022-12-07T22:33:53.289Z,3.50
2022-12-07T22:36:20.767Z,3.40
2022-12-07T22:38:47.776Z,3.40
2022-12-07T22:41:25.451Z,3.40
2022-12-07T22:43:52.598Z,3.40
2022-12-07T22:46:19.611Z,3.40
2022-12-07T22:48:46.800Z,3.40
2022-12-07T22:51:31.653Z,3.40
2022-12-07T22:54:00.842Z,3.40
2022-12-07T22:56:29.515Z,3.40
2022-12-07T22:58:56.959Z,3.40
2022-12-07T23:01:24.643Z,3.40
2022-12-07T23:03:51.884Z,3.40
2022-12-07T23:06:23.044Z,3.40
2022-12-07T23:08:50.303Z,3.40
2022-12-07T23:11:39.944Z,3.30
2022-12-07T23:14:16.163Z,3.30
2022-12-07T23:16:43.648Z,3.30
2022-12-07T23:19:10.812Z,3.40
2022-12-07T23:21:37.802Z,3.40
2022-12-07T23:24:05.144Z,3.40
2022-12-07T23:26:32.269Z,3.40
2022-12-07T23:28:59.225Z,3.30
2022-12-07T23:31:26.508Z,3.30
2022-12-07T23:33:53.525Z,3.30
2022-12-07T23:36:23.344Z,3.30
2022-12-07T23:38:52.251Z,3.30
2022-12-07T23:41:21.991Z,3.30
2022-12-07T23:43:49.319Z,3.40
2022-12-07T23:46:19.400Z,3.40
2022-12-07T23:48:47.906Z,3.50
2022-12-07T23:51:15.004Z,3.50
2022-12-07T23:53:44.023Z,3.50
2022-12-07T23:56:15.074Z,3.50
2022-12-07T23:58:42.089Z,3.50
